Thursday, October 23, 2014, 12:29 AM EDT

KGED, Georgetown Sussex Co Airport

Location: Georgetown, DE, United States Lat: 38.683
Local Time: 12:29 AM EDT ( 4:29 GMT) Lon: -75.367
Time Zone: US/Eastern Elev: 52 ft

Show me the last for .
Show Decoded

2014-10-23 00:12 METAR KGED 230412Z AUTO 33007G16KT 10SM SCT022 OVC033 12/08 A2980 RMK AO2
                 T01170083 =
2014-10-22 23:54 METAR KGED 230354Z AUTO 32009G16KT 290V350 10SM BKN022 BKN027 OVC034 12/08 A2980
                 RMK AO2 SLP091 T01170083 =
2014-10-22 22:54 METAR KGED 230254Z AUTO 32010G18KT 10SM SCT019 OVC027 12/09 A2981 RMK AO2 SLP095
                 60001 T01170089 58002 =
2014-10-22 21:54 METAR KGED 230154Z AUTO 34009G15KT 290V010 10SM FEW012 BKN019 OVC037 12/10 A2982
                 RMK AO2 RAE36 SLP098 P0000 T01170100 =
2014-10-22 21:49 METAR KGED 230149Z AUTO 33007G16KT 10SM BKN015 BKN019 OVC037 12/10 A2982 RMK AO2
                 RAE36 P0000 =
2014-10-22 21:13 METAR KGED 230113Z AUTO 34008KT 10SM -RA BKN013 BKN019 OVC027 12/10 A2983 RMK
                 AO2 P0000 T01170100 =
2014-10-22 20:54 METAR KGED 230054Z AUTO 32008G17KT 7SM -RA FEW010 BKN015 OVC030 12/10 A2982 RMK
                 AO2 SLP097 P0001 T01170100 =
2014-10-22 20:41 METAR KGED 230041Z AUTO 32008G18KT 300V010 10SM -RA SCT009 BKN016 OVC025 12/11
                 A2982 RMK AO2 P0001 T01220106 =
2014-10-22 20:09 METAR KGED 230009Z AUTO 33009G18KT 5SM -RA BR BKN008 OVC017 12/11 A2982 RMK AO2
                 P0001 T01220106 =
2014-10-22 19:54 METAR KGED 222354Z AUTO 34011G17KT 5SM RA BR BKN010 BKN014 OVC024 12/11 A2982
                 RMK AO2 CIG 006V013 SLP097 P0001 60002 T01220106 10150 20122 51008 =
2014-10-22 18:54 METAR KGED 222254Z AUTO 34012G19KT 10SM -RA BKN013 OVC021 13/11 A2982 RMK AO2
                 SLP096 P0001 T01280106 =
2014-10-22 18:13 METAR KGED 222213Z AUTO 35010KT 10SM -RA BKN014 OVC019 13/11 A2981 RMK AO2 P0000
                 T01280106 =
2014-10-22 17:54 METAR KGED 222154Z AUTO 35010G19KT 10SM -RA OVC015 13/11 A2981 RMK AO2 SLP093
                 P0000 T01280106 =
2014-10-22 16:54 METAR KGED 222054Z AUTO 35014G26KT 10SM -RA OVC015 14/11 A2980 RMK AO2 PK WND
                 36026/2053 RAB54 SLP089 P0000 60000 T01390106 53002 =
2014-10-22 16:38 METAR KGED 222038Z AUTO 35011G21KT 10SM OVC015 14/11 A2979 RMK AO2 T01390106 =
2014-10-22 15:35 METAR KGED 221935Z AUTO 35012G23KT 10SM OVC014 14/11 A2979 RMK AO2 RAB21E30
                 P0000 T01390106 =
2014-10-22 14:54 METAR KGED 221854Z AUTO 36008KT 10SM BKN017 BKN027 OVC034 15/11 A2978 RMK AO2
                 SLP085 T01500111 =
2014-10-22 13:54 METAR KGED 221754Z AUTO 02012G21KT 10SM OVC016 14/11 A2979 RMK AO2 LTG DSNT SE
                 RAE46 SLP087 P0000 60000 T01440111 10156 20133 58009 =
2014-10-22 12:54 METAR KGED 221654Z AUTO 36008G23KT 10SM -RA BKN017 OVC025 15/12 A2981 RMK AO2
                 RAB52 SLP092 P0000 T01500117 =
2014-10-22 11:54 METAR KGED 221554Z AUTO 02009G17KT 10SM OVC018 15/11 A2982 RMK AO2 SLP098
                 T01500111 =
2014-10-22 10:54 METAR KGED 221454Z AUTO 03011G24KT 10SM OVC018 15/11 A2982 RMK AO2 SLP096
                 T01500111 58003 =
2014-10-22 09:54 METAR KGED 221354Z AUTO 02012G23KT 10SM BKN015 OVC020 15/12 A2983 RMK AO2 LTG
                 DSNT SE SLP101 T01500117 =
2014-10-22 09:38 METAR KGED 221338Z AUTO 01009G17KT 10SM SCT013 BKN019 BKN035 15/12 A2983 RMK AO2
                 LTG DSNT E T01500117 =
2014-10-22 09:30 METAR KGED 221330Z AUTO 02010G18KT 350V050 10SM BKN013 BKN019 15/12 A2983 RMK
                 AO2 LTG DSNT SE T01500122 =
2014-10-22 08:54 METAR KGED 221254Z AUTO 02008KT 350V050 7SM FEW009 FEW020 15/13 A2982 RMK AO2
                 SLP097 T01500128 =
2014-10-22 08:46 METAR KGED 221246Z AUTO 01008KT 360V060 6SM BR FEW020 SCT028 14/13 A2982 RMK AO2
                 T01440128 =
2014-10-22 08:26 METAR KGED 221226Z AUTO 02006KT 4SM BR FEW006 OVC027 14/12 A2983 RMK AO2
                 T01390122 =
2014-10-22 07:54 METAR KGED 221154Z AUTO 36006KT 4SM BR OVC006 13/12 A2983 RMK AO2 CIG 005V009
                 SLP099 70051 T01330122 10133 20128 51010 =
2014-10-22 06:54 METAR KGED 221054Z AUTO 36006KT 5SM BR OVC006 13/12 A2981 RMK AO2 SLP094
                 T01330122 =
2014-10-22 06:10 METAR KGED 221010Z AUTO 35007KT 5SM BR OVC005 13/12 A2981 RMK AO2 T01330122 =
2014-10-22 05:54 METAR KGED 220954Z AUTO 36005KT 5SM BR OVC004 13/12 A2981 RMK AO2 SLP095
                 T01330122 =
2014-10-22 04:54 METAR KGED 220854Z AUTO 34006KT 3SM BR OVC003 13/12 A2979 RMK AO2 SLP088
                 T01280122 56006 =
2014-10-22 04:15 METAR KGED 220815Z AUTO 02006KT 3SM BR BKN004 OVC110 13/12 A2979 RMK AO2
                 T01280117 =
2014-10-22 03:54 METAR KGED 220754Z AUTO VRB03KT 4SM BR FEW004 BKN110 13/12 A2980 RMK AO2 SLP090
                 T01280117 =
2014-10-22 02:54 METAR KGED 220654Z AUTO VRB03KT 4SM BR FEW006 13/12 A2981 RMK AO2 SLP094
                 T01280117 =
2014-10-22 01:54 METAR KGED 220554Z AUTO 01004KT 6SM BR FEW055 BKN095 OVC110 13/12 A2982 RMK AO2
                 RAE48 SLP098 P0004 60051 T01330122 10156 20128 58016 =
2014-10-22 00:54 METAR KGED 220454Z AUTO 34005KT 7SM -RA FEW045 BKN055 OVC070 13/12 A2984 RMK AO2
                 LTG DSNT NE AND E SLP104 P0002 T01330117 402220111 =

Support USWX by starting your Amazon purchase here.